Time;durP1;ratioP1;P1;durP2;ratioP2;P2;SDS_P1;SDS_P2;PMS_P1;PMS_P2;Temp;Humidity;BMP_temperature;BMP_pressure;BME280_temperature;BME280_humidity;BME280_pressure;Samples;Min_cycle;Max_cycle;Signal;HPM_P1;HPM_P2
2022/11/21 00:00:39;;;;;;;22.07;12.63;;;0.60;99.90;;;;;;5106635;28;20201;-82
2022/11/21 00:03:06;;;;;;;25.10;14.63;;;0.50;99.90;;;;;;5099011;28;20193;-81
2022/11/21 00:05:34;;;;;;;19.97;10.43;;;0.50;99.90;;;;;;5089957;28;20208;-81
2022/11/21 00:08:01;;;;;;;20.63;10.80;;;0.50;99.90;;;;;;5100245;28;20233;-80
2022/11/21 00:10:27;;;;;;;22.53;11.07;;;0.50;99.90;;;;;;5087849;28;20282;-79
2022/11/21 00:12:55;;;;;;;20.70;11.07;;;0.50;99.90;;;;;;5097485;28;20200;-81
2022/11/21 00:15:22;;;;;;;21.57;12.20;;;0.60;99.90;;;;;;5104479;28;20677;-80
2022/11/21 00:17:51;;;;;;;19.77;10.73;;;0.50;99.90;;;;;;5117684;28;20219;-80
2022/11/21 00:20:18;;;;;;;19.10;10.40;;;0.50;99.90;;;;;;5109652;28;20221;-80
2022/11/21 00:22:45;;;;;;;21.07;10.53;;;0.50;99.90;;;;;;5100240;28;20201;-81
2022/11/21 00:25:13;;;;;;;20.97;10.53;;;0.40;99.90;;;;;;5110415;28;20290;-80
2022/11/21 00:27:40;;;;;;;21.30;11.37;;;0.50;99.90;;;;;;5102389;28;20231;-81
2022/11/21 00:30:13;;;;;;;22.30;11.10;;;0.50;99.90;;;;;;5095241;28;20288;-80
2022/11/21 00:32:39;;;;;;;22.10;10.93;;;0.50;99.90;;;;;;5104039;28;20242;-81
2022/11/21 00:35:08;;;;;;;20.00;10.77;;;0.40;99.90;;;;;;5104478;28;20296;-81
2022/11/21 00:37:35;;;;;;;21.57;10.93;;;0.40;99.90;;;;;;5097401;28;20535;-79
2022/11/21 00:40:02;;;;;;;22.83;11.37;;;0.40;99.90;;;;;;5080075;28;20660;-80
2022/11/21 00:42:29;;;;;;;22.13;11.90;;;0.50;99.90;;;;;;5079393;28;20280;-81
2022/11/21 00:44:55;;;;;;;22.90;12.40;;;0.50;99.90;;;;;;5081971;28;20209;-80
2022/11/21 00:47:22;;;;;;;22.70;12.60;;;0.60;99.90;;;;;;5099971;28;20229;-82
2022/11/21 00:49:49;;;;;;;21.23;12.60;;;0.60;99.90;;;;;;5102426;28;20208;-82
2022/11/21 00:52:18;;;;;;;23.43;13.13;;;0.60;99.90;;;;;;5106509;28;20205;-81
2022/11/21 00:54:45;;;;;;;21.53;11.53;;;0.60;99.90;;;;;;5093784;28;20202;-82
2022/11/21 00:57:11;;;;;;;22.20;12.33;;;0.60;99.90;;;;;;5092440;28;20212;-80
2022/11/21 00:59:38;;;;;;;21.83;11.33;;;0.60;99.90;;;;;;5095761;28;20228;-80
2022/11/21 01:02:05;;;;;;;21.83;12.17;;;0.60;99.90;;;;;;5097933;28;20217;-81
2022/11/21 01:04:32;;;;;;;20.53;10.87;;;0.60;99.90;;;;;;5095049;28;20557;-82
2022/11/21 01:06:59;;;;;;;22.83;11.97;;;0.50;99.90;;;;;;5111328;28;20200;-82
2022/11/21 01:09:27;;;;;;;21.17;10.87;;;0.60;99.90;;;;;;5103397;28;20190;-81
2022/11/21 01:11:54;;;;;;;23.17;11.73;;;0.50;99.90;;;;;;5099429;28;20296;-80
2022/11/21 01:14:21;;;;;;;22.17;12.40;;;0.50;99.90;;;;;;5103695;28;20200;-81
2022/11/21 01:16:47;;;;;;;21.70;12.13;;;0.50;99.90;;;;;;5107237;28;20198;-81
2022/11/21 01:19:14;;;;;;;21.90;11.67;;;0.50;99.90;;;;;;5112553;28;20225;-80
2022/11/21 01:21:41;;;;;;;21.17;11.47;;;0.50;99.90;;;;;;5122158;28;20197;-82
2022/11/21 01:24:11;;;;;;;21.87;10.53;;;0.50;99.90;;;;;;5099900;28;20282;-82
2022/11/21 01:26:39;;;;;;;21.97;11.77;;;0.50;99.90;;;;;;5109482;28;20211;-81
2022/11/21 01:29:07;;;;;;;21.40;12.40;;;0.50;99.90;;;;;;5113738;28;20217;-80
2022/11/21 01:31:34;;;;;;;22.30;12.07;;;0.50;99.90;;;;;;5123859;28;20602;-80
2022/11/21 01:34:01;;;;;;;21.63;11.83;;;0.60;99.90;;;;;;5103209;28;20193;-81
2022/11/21 01:36:30;;;;;;;21.93;11.70;;;0.60;99.90;;;;;;5107422;28;20203;-81
2022/11/21 01:38:59;;;;;;;21.07;11.90;;;0.70;99.90;;;;;;5105533;28;20572;-80
2022/11/21 01:41:30;;;;;;;21.60;11.47;;;0.60;99.90;;;;;;5115183;28;20225;-81
2022/11/21 01:43:58;;;;;;;20.97;12.00;;;0.60;99.90;;;;;;5109535;28;20205;-80
2022/11/21 01:46:25;;;;;;;22.33;11.87;;;0.60;99.90;;;;;;5112407;28;20205;-80
2022/11/21 01:48:56;;;;;;;23.53;12.23;;;0.60;99.90;;;;;;5108782;28;20213;-81
2022/11/21 01:51:28;;;;;;;21.37;11.50;;;0.60;99.90;;;;;;5097269;28;20201;-80
2022/11/21 01:54:00;;;;;;;20.73;10.70;;;0.60;99.90;;;;;;5112635;28;20201;-80
2022/11/21 01:56:30;;;;;;;20.43;11.00;;;0.60;99.90;;;;;;5090111;28;20297;-80
2022/11/21 01:59:02;;;;;;;22.43;12.20;;;0.60;99.90;;;;;;5101150;28;20217;-81
2022/11/21 02:01:29;;;;;;;21.40;11.20;;;0.60;99.90;;;;;;5092997;28;20269;-80
2022/11/21 02:03:57;;;;;;;20.73;11.00;;;0.60;99.90;;;;;;5121050;28;20212;-80
2022/11/21 02:06:25;;;;;;;23.70;13.23;;;0.50;99.90;;;;;;5115839;28;20201;-82
2022/11/21 02:08:52;;;;;;;19.53;11.77;;;0.50;99.90;;;;;;5120922;28;20217;-82
2022/11/21 02:11:29;;;;;;;21.40;11.97;;;0.60;99.90;;;;;;5114517;28;20194;-80
2022/11/21 02:13:56;;;;;;;20.57;12.87;;;0.60;99.90;;;;;;5097585;28;20630;-81
2022/11/21 02:16:25;;;;;;;21.43;13.50;;;0.60;99.90;;;;;;5106150;28;20205;-83
2022/11/21 02:18:52;;;;;;;21.20;12.63;;;0.60;99.90;;;;;;5110712;28;20217;-80
2022/11/21 02:21:29;;;;;;;21.80;11.60;;;0.60;99.90;;;;;;5099274;28;20213;-80
2022/11/21 02:24:02;;;;;;;23.30;12.93;;;0.50;99.90;;;;;;5097530;28;20209;-81
2022/11/21 02:26:31;;;;;;;23.53;12.33;;;0.50;99.90;;;;;;5095766;28;20209;-80
2022/11/21 02:28:58;;;;;;;21.03;12.07;;;0.60;99.90;;;;;;5118806;28;20219;-82
2022/11/21 02:31:25;;;;;;;22.73;12.67;;;0.60;99.90;;;;;;5105451;28;20217;-80
2022/11/21 02:33:51;;;;;;;21.93;13.40;;;0.50;99.90;;;;;;5086569;28;20295;-81
2022/11/21 02:36:37;;;;;;;22.27;13.03;;;0.50;99.90;;;;;;5113034;28;20204;-80
2022/11/21 02:39:05;;;;;;;22.50;11.80;;;0.40;99.90;;;;;;5119134;28;20213;-81
2022/11/21 02:41:37;;;;;;;23.23;12.30;;;0.40;99.90;;;;;;5098131;28;20262;-80
2022/11/21 02:44:09;;;;;;;22.97;11.60;;;0.30;99.90;;;;;;5109747;28;20198;-80
2022/11/21 02:46:36;;;;;;;22.03;11.67;;;0.20;99.90;;;;;;5109526;28;20207;-81
2022/11/21 02:49:08;;;;;;;22.00;11.77;;;0.20;99.90;;;;;;5099850;28;20228;-81
2022/11/21 02:51:34;;;;;;;22.17;11.27;;;0.10;99.90;;;;;;5116013;28;20196;-81
2022/11/21 02:54:01;;;;;;;21.73;11.77;;;0.20;99.90;;;;;;5120345;28;20209;-80
2022/11/21 02:56:28;;;;;;;20.80;12.00;;;0.30;99.90;;;;;;5105655;28;20575;-80
2022/11/21 02:58:56;;;;;;;23.03;12.63;;;0.30;99.90;;;;;;5108401;28;20225;-80
2022/11/21 03:01:23;;;;;;;25.13;12.83;;;0.30;99.90;;;;;;5097315;28;20338;-82
2022/11/21 03:03:50;;;;;;;24.50;12.33;;;0.30;99.90;;;;;;5098981;28;20197;-80
2022/11/21 03:06:17;;;;;;;24.17;12.63;;;0.30;99.90;;;;;;5102035;28;20223;-80
2022/11/21 03:08:44;;;;;;;23.93;12.17;;;0.30;99.90;;;;;;5085614;28;20244;-80
2022/11/21 03:11:10;;;;;;;25.07;12.70;;;0.30;99.90;;;;;;5092997;28;20227;-80
2022/11/21 03:13:37;;;;;;;21.87;12.83;;;0.30;99.90;;;;;;5110031;28;20194;-81
2022/11/21 03:16:05;;;;;;;21.93;13.40;;;0.40;99.90;;;;;;5099569;28;20212;-81
2022/11/21 03:18:32;;;;;;;23.20;12.27;;;0.40;99.90;;;;;;5110544;28;20218;-81
2022/11/21 03:20:59;;;;;;;22.43;13.13;;;0.40;99.90;;;;;;5115151;28;20290;-80
2022/11/21 03:23:26;;;;;;;23.30;13.03;;;0.40;99.90;;;;;;5106598;28;20568;-80
2022/11/21 03:25:52;;;;;;;24.67;12.83;;;0.40;99.90;;;;;;5108791;28;20569;-81
2022/11/21 03:28:19;;;;;;;24.77;13.27;;;0.40;99.90;;;;;;5119860;28;20213;-80
2022/11/21 03:30:46;;;;;;;23.73;12.97;;;0.50;99.90;;;;;;5112981;28;20202;-80
2022/11/21 03:33:15;;;;;;;22.13;12.37;;;0.50;99.90;;;;;;5099322;28;20268;-82
2022/11/21 03:35:41;;;;;;;24.60;13.07;;;0.50;99.90;;;;;;5109831;28;20250;-80
2022/11/21 03:38:08;;;;;;;23.73;12.60;;;0.40;99.90;;;;;;5105387;28;20217;-81
2022/11/21 03:40:35;;;;;;;22.27;12.23;;;0.50;99.90;;;;;;5099782;28;20233;-81
2022/11/21 03:43:05;;;;;;;23.17;12.47;;;0.50;99.90;;;;;;5078474;28;20210;-82
2022/11/21 03:45:32;;;;;;;24.60;13.33;;;0.40;99.90;;;;;;5081450;28;20228;-82
2022/11/21 03:47:59;;;;;;;25.03;13.27;;;0.40;99.90;;;;;;5119362;28;20221;-81
2022/11/21 03:50:27;;;;;;;23.03;12.97;;;0.50;99.90;;;;;;5113843;28;20202;-80
2022/11/21 03:52:53;;;;;;;24.10;13.60;;;0.40;99.90;;;;;;5099326;28;20726;-80
2022/11/21 03:55:20;;;;;;;22.63;12.57;;;0.50;99.90;;;;;;5099122;28;20571;-81
2022/11/21 03:57:47;;;;;;;23.40;13.07;;;0.50;99.90;;;;;;5100058;28;20222;-80
2022/11/21 04:00:15;;;;;;;24.33;13.00;;;0.40;99.90;;;;;;5099179;28;20701;-80
2022/11/21 04:02:42;;;;;;;26.97;13.83;;;0.30;99.90;;;;;;5099899;28;20205;-81
2022/11/21 04:05:09;;;;;;;23.33;12.47;;;0.20;99.90;;;;;;5114370;28;20286;-81
2022/11/21 04:07:37;;;;;;;23.70;12.60;;;0.00;99.90;;;;;;5108609;28;20608;-80
2022/11/21 04:10:05;;;;;;;24.10;12.80;;;-0.10;99.90;;;;;;5116996;28;20284;-80
2022/11/21 04:12:31;;;;;;;24.37;12.63;;;-0.30;99.90;;;;;;5103315;28;20202;-81
2022/11/21 04:14:58;;;;;;;21.10;12.13;;;-0.40;99.90;;;;;;5109428;28;20200;-81
2022/11/21 04:17:25;;;;;;;24.43;12.90;;;-0.40;99.90;;;;;;5102313;28;20229;-80
2022/11/21 04:19:52;;;;;;;24.63;13.40;;;-0.50;99.90;;;;;;5098618;28;20221;-81
2022/11/21 04:22:18;;;;;;;24.93;14.87;;;-0.50;99.90;;;;;;5095633;28;20207;-80
2022/11/21 04:24:46;;;;;;;25.00;13.87;;;-0.60;99.90;;;;;;5096623;28;20205;-80
2022/11/21 04:27:13;;;;;;;24.17;14.57;;;-0.70;99.90;;;;;;5093188;28;20209;-81
2022/11/21 04:29:40;;;;;;;38.80;21.60;;;-0.70;99.90;;;;;;5094632;28;20205;-82
2022/11/21 04:32:07;;;;;;;27.97;14.50;;;-0.80;99.90;;;;;;5099180;28;20696;-80
2022/11/21 04:34:33;;;;;;;25.37;14.80;;;-0.80;99.90;;;;;;5100376;28;20213;-81
2022/11/21 04:37:00;;;;;;;23.60;14.37;;;-0.80;99.90;;;;;;5099837;28;20201;-81
2022/11/21 04:39:27;;;;;;;25.03;14.83;;;-0.70;99.90;;;;;;5100376;28;20292;-82
2022/11/21 04:41:55;;;;;;;25.20;14.10;;;-0.70;99.90;;;;;;5101180;28;20227;-82
2022/11/21 04:44:22;;;;;;;26.30;13.70;;;-0.70;99.90;;;;;;5101729;28;20208;-81
2022/11/21 04:46:49;;;;;;;25.97;14.53;;;-0.80;99.90;;;;;;5113994;28;20287;-81
2022/11/21 04:49:15;;;;;;;25.77;14.80;;;-1.00;99.90;;;;;;5124303;28;20221;-81
2022/11/21 04:51:42;;;;;;;26.60;15.27;;;-1.00;99.90;;;;;;5122370;28;20203;-81
2022/11/21 04:54:10;;;;;;;25.20;13.30;;;-1.10;99.90;;;;;;5106783;28;20198;-81
2022/11/21 04:56:37;;;;;;;27.93;15.87;;;-1.00;99.90;;;;;;5098590;28;20208;-81
2022/11/21 04:59:05;;;;;;;27.03;15.37;;;-0.90;99.90;;;;;;5102845;28;20225;-81
2022/11/21 05:01:32;;;;;;;26.77;16.00;;;-0.90;99.90;;;;;;5095995;28;20237;-82
2022/11/21 05:03:58;;;;;;;25.70;14.70;;;-0.90;99.90;;;;;;5103838;28;20201;-82
2022/11/21 05:06:25;;;;;;;26.13;14.53;;;-1.00;99.90;;;;;;5102522;28;20198;-82
2022/11/21 05:08:52;;;;;;;26.03;15.33;;;-1.00;99.90;;;;;;5099939;28;20221;-82
2022/11/21 05:14:04;;;;;;;24.90;15.20;;;-1.00;99.90;;;;;;5103155;28;20641;-82
2022/11/21 05:16:32;;;;;;;24.80;14.23;;;-1.00;99.90;;;;;;5101897;28;20288;-82
2022/11/21 05:18:59;;;;;;;23.67;13.90;;;-1.00;99.90;;;;;;5102676;28;20229;-82
2022/11/21 05:21:26;;;;;;;24.77;15.07;;;-1.00;99.90;;;;;;5101950;28;20229;-81
2022/11/21 05:23:53;;;;;;;23.93;14.90;;;-1.00;99.90;;;;;;5101075;28;20205;-81
2022/11/21 05:26:19;;;;;;;23.83;14.73;;;-1.00;99.90;;;;;;5082527;28;20585;-81
2022/11/21 05:28:47;;;;;;;24.23;14.83;;;-1.00;99.90;;;;;;5080895;28;20233;-81
2022/11/21 05:31:15;;;;;;;23.80;14.33;;;-1.00;99.90;;;;;;5102836;28;20193;-82
2022/11/21 05:33:42;;;;;;;24.60;14.23;;;-1.00;99.90;;;;;;5101736;28;20201;-82
2022/11/21 05:36:09;;;;;;;23.83;15.20;;;-1.10;99.90;;;;;;5102426;28;20211;-81
2022/11/21 05:38:35;;;;;;;26.07;14.50;;;-1.20;99.90;;;;;;5103053;28;20316;-81
2022/11/21 05:41:02;;;;;;;25.00;13.77;;;-1.20;99.90;;;;;;5088422;28;20236;-81
2022/11/21 05:43:46;;;;;;;23.00;13.07;;;-1.30;99.90;;;;;;5083721;28;20672;-81
2022/11/21 05:46:16;;;;;;;24.70;14.17;;;-1.40;99.90;;;;;;5102717;28;20194;-81
2022/11/21 05:48:43;;;;;;;22.17;13.33;;;-1.40;99.90;;;;;;5102802;28;20222;-82
2022/11/21 05:51:10;;;;;;;23.20;14.17;;;-1.30;99.90;;;;;;5099205;28;20198;-81
2022/11/21 05:53:37;;;;;;;27.13;13.97;;;-1.30;99.90;;;;;;5101343;28;20205;-82
2022/11/21 05:56:07;;;;;;;24.57;13.93;;;-1.20;99.90;;;;;;5093918;28;20213;-81
2022/11/21 05:58:34;;;;;;;23.73;14.77;;;-1.20;99.90;;;;;;5081047;28;20218;-81
2022/11/21 06:01:01;;;;;;;24.27;14.90;;;-1.20;99.90;;;;;;5088779;28;20455;-81
2022/11/21 06:03:31;;;;;;;24.30;14.17;;;-1.10;99.90;;;;;;5101081;28;20227;-83
2022/11/21 06:06:00;;;;;;;24.07;13.77;;;-1.40;99.90;;;;;;5101469;28;20209;-82
2022/11/21 06:08:27;;;;;;;21.63;12.83;;;-1.70;99.90;;;;;;5101760;28;20244;-82
2022/11/21 06:10:54;;;;;;;25.47;14.40;;;-1.70;99.90;;;;;;5101387;28;20220;-83
2022/11/21 06:13:24;;;;;;;24.20;14.93;;;-1.60;99.90;;;;;;5103443;28;20216;-82
2022/11/21 06:15:52;;;;;;;23.63;13.50;;;-1.50;99.90;;;;;;5103114;28;20563;-81
2022/11/21 06:18:20;;;;;;;23.97;12.93;;;-1.50;99.90;;;;;;5101004;28;20252;-81
2022/11/21 06:20:48;;;;;;;22.87;13.30;;;-1.50;99.90;;;;;;5082099;28;20240;-81
2022/11/21 06:23:15;;;;;;;24.73;14.40;;;-1.40;99.90;;;;;;5080991;28;20634;-82
2022/11/21 06:25:42;;;;;;;23.30;14.07;;;-1.40;99.90;;;;;;5098640;28;20206;-82
2022/11/21 06:28:09;;;;;;;24.00;14.57;;;-1.40;99.90;;;;;;5101712;28;20235;-81
2022/11/21 06:30:37;;;;;;;22.50;13.40;;;-1.50;99.90;;;;;;5094735;28;20210;-81
2022/11/21 06:33:05;;;;;;;24.23;13.37;;;-1.40;99.90;;;;;;5102147;28;20680;-81
2022/11/21 06:35:32;;;;;;;24.20;14.07;;;-1.40;99.90;;;;;;5101273;28;20202;-82
2022/11/21 06:38:00;;;;;;;24.27;14.03;;;-1.50;99.90;;;;;;5089820;28;20233;-81
2022/11/21 06:40:27;;;;;;;23.47;13.63;;;-1.50;99.90;;;;;;5082222;28;20317;-81
2022/11/21 06:42:53;;;;;;;23.23;13.30;;;-1.60;99.90;;;;;;5079516;28;20209;-82
2022/11/21 06:45:20;;;;;;;23.47;13.73;;;-1.50;99.90;;;;;;5080741;28;20212;-81
2022/11/21 06:47:47;;;;;;;26.33;14.60;;;-1.60;99.90;;;;;;5081250;28;20222;-81
2022/11/21 06:50:14;;;;;;;24.13;13.47;;;-1.70;99.90;;;;;;5097879;28;20202;-83
2022/11/21 06:52:41;;;;;;;24.00;13.90;;;-1.90;99.90;;;;;;5103879;28;20260;-83
2022/11/21 06:55:10;;;;;;;22.53;12.70;;;-1.90;99.90;;;;;;5094989;28;20658;-82
2022/11/21 06:57:37;;;;;;;22.87;13.57;;;-2.00;99.90;;;;;;5081313;28;20714;-82
2022/11/21 07:00:04;;;;;;;23.30;13.77;;;-1.80;99.90;;;;;;5086082;28;20215;-83
2022/11/21 07:02:31;;;;;;;24.17;13.87;;;-1.90;99.90;;;;;;5100049;28;20285;-84
2022/11/21 07:04:58;;;;;;;23.37;13.67;;;-2.00;99.90;;;;;;5100667;28;20568;-81
2022/11/21 07:07:24;;;;;;;24.43;14.43;;;-2.00;99.90;;;;;;5094778;28;20230;-81
2022/11/21 07:09:51;;;;;;;22.80;13.20;;;-1.90;99.90;;;;;;5080223;28;20199;-81
2022/11/21 07:15:04;;;;;;;23.07;13.50;;;-2.10;99.90;;;;;;5100892;28;20207;-83
2022/11/21 07:17:30;;;;;;;27.13;15.20;;;-2.00;99.90;;;;;;5100364;28;20738;-81
2022/11/21 07:19:57;;;;;;;25.70;14.90;;;-1.90;99.90;;;;;;5101944;28;20736;-83
2022/11/21 07:22:24;;;;;;;23.40;13.17;;;-1.80;99.90;;;;;;5098338;28;20300;-81
2022/11/21 07:24:51;;;;;;;24.33;15.23;;;-1.90;99.90;;;;;;5095803;28;20202;-81
2022/11/21 07:27:19;;;;;;;24.63;13.87;;;-1.80;99.90;;;;;;5099844;28;20216;-84
2022/11/21 07:29:45;;;;;;;24.20;14.43;;;-1.80;99.90;;;;;;5103004;28;20256;-81
2022/11/21 07:32:12;;;;;;;25.23;14.77;;;-1.80;99.90;;;;;;5101360;28;20200;-82
2022/11/21 07:34:39;;;;;;;25.47;14.97;;;-1.70;99.90;;;;;;5100600;28;20292;-82
2022/11/21 07:37:06;;;;;;;24.27;13.90;;;-1.60;99.90;;;;;;5100628;28;20200;-81
2022/11/21 07:39:33;;;;;;;29.37;15.83;;;-1.60;99.90;;;;;;5096594;28;20284;-82
2022/11/21 07:42:00;;;;;;;24.07;15.27;;;-1.50;99.90;;;;;;5080999;28;20225;-81
2022/11/21 07:44:28;;;;;;;28.03;16.57;;;-1.60;99.90;;;;;;5088756;28;20209;-84
2022/11/21 07:46:55;;;;;;;27.57;15.77;;;-1.70;99.90;;;;;;5100044;28;20227;-84
2022/11/21 07:49:22;;;;;;;25.70;14.57;;;-1.60;99.90;;;;;;5099173;28;20704;-82
2022/11/21 07:51:48;;;;;;;29.40;17.10;;;-1.60;99.90;;;;;;5099771;28;20288;-81
2022/11/21 07:54:15;;;;;;;28.37;16.30;;;-1.50;99.90;;;;;;5098514;28;20212;-84
2022/11/21 07:56:42;;;;;;;29.20;16.53;;;-1.40;99.90;;;;;;5080041;28;20202;-83
2022/11/21 07:59:09;;;;;;;31.73;18.40;;;-1.20;99.90;;;;;;5079881;28;20225;-81
2022/11/21 08:01:37;;;;;;;33.57;18.87;;;-1.20;99.90;;;;;;5080558;28;20217;-83
2022/11/21 08:04:04;;;;;;;33.47;19.30;;;-1.10;99.90;;;;;;5099741;28;20204;-82
2022/11/21 08:06:31;;;;;;;33.80;19.57;;;-0.80;99.90;;;;;;5099484;28;20205;-82
2022/11/21 08:08:57;;;;;;;30.83;18.83;;;-0.60;99.90;;;;;;5098984;28;20218;-81
2022/11/21 08:11:25;;;;;;;30.67;17.43;;;-0.30;99.90;;;;;;5098674;28;20547;-82
2022/11/21 08:13:52;;;;;;;29.83;17.50;;;-0.20;99.90;;;;;;5098998;28;20235;-82
2022/11/21 08:16:18;;;;;;;30.57;18.13;;;-0.20;99.90;;;;;;5099835;28;20206;-84
2022/11/21 08:18:46;;;;;;;30.60;18.03;;;-0.10;99.90;;;;;;5103555;28;20308;-81
2022/11/21 08:21:13;;;;;;;35.43;19.77;;;-0.30;99.90;;;;;;5103119;28;20229;-81
2022/11/21 08:23:40;;;;;;;35.73;20.53;;;0.10;99.90;;;;;;5103559;28;20210;-81
2022/11/21 08:26:09;;;;;;;35.87;21.30;;;0.10;99.90;;;;;;5102952;28;20221;-84
2022/11/21 08:28:36;;;;;;;35.07;20.13;;;0.40;99.90;;;;;;5102499;28;20217;-82
2022/11/21 08:31:04;;;;;;;39.03;21.43;;;0.60;99.90;;;;;;5102660;28;20557;-81
2022/11/21 08:33:32;;;;;;;36.87;20.23;;;0.10;99.90;;;;;;5084001;28;20946;-83
2022/11/21 08:36:04;;;;;;;40.37;19.87;;;0.00;99.90;;;;;;5082254;28;20217;-83
2022/11/21 08:38:31;;;;;;;37.60;19.23;;;0.40;99.90;;;;;;5093912;28;20223;-83
2022/11/21 08:43:38;;;;;;;41.50;22.53;;;0.20;99.90;;;;;;5079277;28;20281;-84
2022/11/21 08:46:05;;;;;;;42.17;22.67;;;0.40;99.90;;;;;;5082094;28;20206;-81
2022/11/21 08:48:32;;;;;;;43.20;21.63;;;0.60;99.90;;;;;;5082006;28;20241;-81
2022/11/21 08:51:00;;;;;;;43.47;21.60;;;0.80;99.90;;;;;;5082273;28;20658;-82
2022/11/21 08:53:27;;;;;;;40.37;21.37;;;0.70;99.90;;;;;;5081673;28;20209;-83
2022/11/21 08:55:54;;;;;;;41.20;20.83;;;0.60;99.90;;;;;;5087104;28;20217;-81
2022/11/21 08:58:20;;;;;;;40.33;18.53;;;0.80;99.90;;;;;;5101625;28;20236;-83
2022/11/21 09:00:47;;;;;;;39.50;17.80;;;0.60;99.90;;;;;;5103223;28;20212;-82
2022/11/21 09:03:14;;;;;;;45.20;19.80;;;1.00;99.90;;;;;;5102063;28;20198;-81
2022/11/21 09:05:41;;;;;;;41.43;21.17;;;1.20;99.90;;;;;;5097816;28;20205;-83
2022/11/21 09:08:09;;;;;;;35.30;18.80;;;1.80;99.90;;;;;;5100279;28;20228;-82
2022/11/21 09:10:36;;;;;;;32.53;15.77;;;1.70;99.90;;;;;;5102209;28;20193;-82
2022/11/21 09:13:02;;;;;;;34.97;18.30;;;1.30;99.90;;;;;;5102128;28;20198;-82
2022/11/21 09:18:14;;;;;;;30.43;16.43;;;1.70;99.90;;;;;;5101059;28;20220;-81
2022/11/21 09:20:43;;;;;;;31.50;14.80;;;1.20;99.90;;;;;;5103181;28;20220;-82
2022/11/21 09:23:13;;;;;;;30.53;15.07;;;1.00;99.90;;;;;;5101262;28;20225;-82
2022/11/21 09:25:40;;;;;;;32.00;15.77;;;0.80;99.90;;;;;;5102619;28;20219;-81
2022/11/21 09:28:09;;;;;;;27.40;15.20;;;1.00;99.90;;;;;;5102333;28;20225;-82
2022/11/21 09:30:36;;;;;;;29.67;15.73;;;1.10;99.90;;;;;;5101818;28;20212;-82
2022/11/21 09:33:03;;;;;;;29.00;15.47;;;1.20;99.90;;;;;;5101161;28;20605;-82
2022/11/21 09:35:30;;;;;;;28.93;13.67;;;1.30;99.90;;;;;;5102269;28;20198;-82
2022/11/21 09:37:57;;;;;;;29.13;13.10;;;1.60;99.90;;;;;;5101334;28;20221;-82
2022/11/21 09:40:25;;;;;;;24.97;11.53;;;1.60;99.90;;;;;;5101122;28;20576;-81
2022/11/21 09:43:02;;;;;;;22.07;10.97;;;1.60;99.90;;;;;;5100072;28;20228;-81
2022/11/21 09:45:34;;;;;;;22.37;10.87;;;1.70;99.90;;;;;;5101039;28;20201;-82
2022/11/21 09:48:04;;;;;;;23.57;12.83;;;1.70;99.90;;;;;;5101433;28;20229;-81
2022/11/21 09:50:35;;;;;;;23.80;11.17;;;2.00;99.90;;;;;;5101125;28;20198;-81
2022/11/21 09:53:06;;;;;;;21.73;11.03;;;2.00;99.90;;;;;;5100904;28;20576;-82
2022/11/21 09:55:42;;;;;;;19.40;10.47;;;2.10;99.90;;;;;;5101739;28;20213;-82
2022/11/21 09:58:19;;;;;;;22.97;10.93;;;1.90;99.90;;;;;;5101571;28;20225;-81
2022/11/21 10:00:46;;;;;;;20.33;10.53;;;2.00;99.90;;;;;;5101099;28;20205;-81
2022/11/21 10:03:13;;;;;;;20.57;10.53;;;2.00;99.90;;;;;;5100486;28;20218;-82
2022/11/21 10:05:47;;;;;;;18.93;9.97;;;2.70;99.90;;;;;;5101959;28;20216;-81
2022/11/21 10:08:23;;;;;;;18.63;10.37;;;2.60;99.90;;;;;;5101592;28;20665;-81
2022/11/21 10:10:58;;;;;;;16.37;8.23;;;2.60;99.90;;;;;;5102352;28;20205;-82
2022/11/21 10:13:46;;;;;;;16.30;8.23;;;2.30;99.90;;;;;;5102222;28;20315;-81
2022/11/21 10:16:21;;;;;;;17.00;8.33;;;2.40;99.90;;;;;;5101288;28;20644;-81
2022/11/21 10:19:14;;;;;;;14.20;7.60;;;2.20;99.90;;;;;;5101081;28;20225;-81
2022/11/21 10:22:13;;;;;;;14.40;7.77;;;2.20;99.90;;;;;;5101715;28;20350;-81
2022/11/21 10:24:48;;;;;;;16.10;7.33;;;2.10;99.90;;;;;;5101211;28;20650;-81
2022/11/21 10:27:21;;;;;;;16.73;7.60;;;2.20;99.90;;;;;;5100592;28;20209;-81
2022/11/21 10:29:53;;;;;;;14.87;7.63;;;2.20;99.90;;;;;;5100437;28;20700;-81
2022/11/21 10:32:25;;;;;;;12.83;6.53;;;2.30;99.90;;;;;;5099964;28;20292;-81
2022/11/21 10:34:57;;;;;;;14.93;7.47;;;2.30;99.90;;;;;;5099928;28;20207;-81
2022/11/21 10:37:32;;;;;;;14.83;8.57;;;2.10;99.90;;;;;;5100008;28;20317;-81
2022/11/21 10:40:10;;;;;;;14.50;7.93;;;2.20;99.90;;;;;;5099905;28;20554;-81
2022/11/21 10:42:47;;;;;;;15.53;7.60;;;2.10;99.90;;;;;;5100459;28;20221;-81
2022/11/21 10:45:17;;;;;;;15.00;7.60;;;2.10;99.90;;;;;;5100826;28;20201;-81
2022/11/21 10:47:45;;;;;;;15.40;8.20;;;2.20;99.90;;;;;;5101280;28;20590;-81
2022/11/21 10:50:35;;;;;;;15.20;7.37;;;2.20;99.90;;;;;;5101010;28;20715;-81
2022/11/21 10:56:00;;;;;;;14.70;8.53;;;2.20;99.90;;;;;;5094685;28;20248;-81
2022/11/21 10:58:36;;;;;;;14.77;8.47;;;1.70;99.90;;;;;;5123476;28;20588;-82
2022/11/21 11:01:03;;;;;;;13.53;7.07;;;2.10;99.90;;;;;;5111041;28;20201;-82
2022/11/21 11:03:31;;;;;;;14.50;7.63;;;2.40;99.90;;;;;;5102254;28;20217;-82
2022/11/21 11:05:58;;;;;;;17.40;9.20;;;2.60;99.90;;;;;;5101879;28;20317;-82
2022/11/21 11:08:26;;;;;;;15.67;8.40;;;2.60;99.90;;;;;;5109251;28;20227;-82
2022/11/21 11:11:05;;;;;;;14.77;8.80;;;2.60;99.90;;;;;;5106659;28;20550;-81
2022/11/21 11:13:55;;;;;;;15.10;7.70;;;3.00;99.90;;;;;;5099332;28;20262;-82
2022/11/21 11:16:25;;;;;;;13.50;8.17;;;2.50;99.90;;;;;;5101382;28;20209;-82
2022/11/21 11:18:57;;;;;;;15.47;7.87;;;2.30;99.90;;;;;;5102427;28;20225;-82
2022/11/21 11:21:26;;;;;;;13.90;7.63;;;2.60;99.90;;;;;;5101482;28;20217;-82
2022/11/21 11:23:54;;;;;;;13.27;7.17;;;2.80;99.90;;;;;;5101163;28;20300;-81
2022/11/21 11:26:24;;;;;;;12.17;6.60;;;2.70;99.90;;;;;;5102441;28;20210;-82
2022/11/21 11:28:51;;;;;;;10.17;6.30;;;2.40;99.90;;;;;;5102746;28;20221;-81
2022/11/21 11:31:18;;;;;;;12.43;6.50;;;2.40;99.90;;;;;;5102396;28;20293;-82
2022/11/21 11:33:55;;;;;;;13.10;7.03;;;2.30;99.90;;;;;;5100072;28;20202;-81
2022/11/21 11:36:38;;;;;;;13.20;7.03;;;2.50;99.90;;;;;;5101286;28;20229;-82
2022/11/21 11:39:18;;;;;;;15.20;8.07;;;2.40;99.90;;;;;;5095677;28;20223;-82
2022/11/21 11:47:53;;;;;;;15.73;8.70;;;5.90;99.90;;;;;;5079432;28;20237;-82
2022/11/21 11:50:24;;;;;;;14.97;8.33;;;5.10;99.90;;;;;;5101735;28;20210;-82
2022/11/21 11:52:59;;;;;;;12.47;7.67;;;4.10;99.90;;;;;;5101008;28;20297;-82
2022/11/21 11:55:33;;;;;;;13.83;7.83;;;3.80;99.90;;;;;;5095284;28;20205;-82
2022/11/21 11:58:02;;;;;;;14.13;7.67;;;4.50;99.90;;;;;;5079849;28;20229;-82
2022/11/21 12:00:39;;;;;;;15.37;8.60;;;4.30;99.90;;;;;;5082146;28;20219;-82
2022/11/21 12:03:13;;;;;;;14.77;7.60;;;4.10;99.90;;;;;;5100651;28;20814;-81
2022/11/21 12:05:54;;;;;;;22.03;13.03;;;3.90;99.90;;;;;;5095842;28;20570;-82
2022/11/21 12:08:26;;;;;;;16.10;9.10;;;3.70;99.90;;;;;;5080557;28;20236;-82
2022/11/21 12:13:45;;;;;;;12.87;6.50;;;3.20;99.90;;;;;;5080630;28;20217;-82
2022/11/21 12:16:15;;;;;;;10.83;6.13;;;3.40;99.90;;;;;;5080466;28;20202;-81
2022/11/21 12:18:50;;;;;;;10.97;6.10;;;2.90;99.90;;;;;;5079797;28;20686;-82
2022/11/21 12:21:19;;;;;;;11.53;6.20;;;3.00;99.90;;;;;;5080596;28;20206;-82
2022/11/21 12:23:50;;;;;;;10.97;6.23;;;2.80;99.90;;;;;;5097999;28;20241;-81
2022/11/21 12:26:39;;;;;;;9.23;5.50;;;2.90;99.90;;;;;;5099617;28;20216;-82
2022/11/21 12:29:15;;;;;;;9.87;5.90;;;3.70;99.90;;;;;;5100281;28;20209;-82
2022/11/21 12:32:11;;;;;;;10.00;6.00;;;4.80;99.90;;;;;;5099869;28;20292;-82
2022/11/21 12:34:58;;;;;;;9.70;5.93;;;5.10;99.90;;;;;;5093938;28;20202;-82
2022/11/21 12:37:36;;;;;;;10.47;5.90;;;4.60;99.90;;;;;;5098114;28;20304;-81
2022/11/21 12:40:20;;;;;;;9.80;5.37;;;4.80;99.90;;;;;;5100521;28;20197;-82
2022/11/21 12:43:03;;;;;;;8.17;5.27;;;3.90;99.90;;;;;;5100146;28;20273;-81
2022/11/21 12:45:32;;;;;;;10.17;5.50;;;3.70;99.90;;;;;;5100302;28;20217;-82
2022/11/21 12:56:49;;;;;;;11.50;6.03;;;3.60;99.90;;;;;;5094409;28;20251;-81
2022/11/21 12:59:15;;;;;;;9.13;5.30;;;3.60;99.90;;;;;;5100149;28;20225;-82
2022/11/21 13:01:52;;;;;;;9.03;5.33;;;4.00;99.90;;;;;;5093441;28;20206;-81
2022/11/21 13:04:24;;;;;;;8.97;5.13;;;4.40;99.90;;;;;;5103456;28;20571;-82
2022/11/21 13:06:51;;;;;;;7.43;5.20;;;3.60;99.90;;;;;;5100645;28;20565;-82
2022/11/21 13:09:23;;;;;;;8.80;5.07;;;4.50;99.90;;;;;;5100395;28;20213;-82
2022/11/21 13:11:58;;;;;;;9.10;5.37;;;5.10;99.90;;;;;;5083565;28;20230;-82
2022/11/21 13:14:32;;;;;;;8.23;5.40;;;5.70;99.90;;;;;;5081342;28;20198;-82
2022/11/21 13:17:09;;;;;;;9.73;5.70;;;5.10;99.90;;;;;;5083102;28;20265;-82